createdAt,value
2023-03-19T00:00:43.809Z,45.85
2023-03-19T00:03:10.924Z,46.37
2023-03-19T00:05:37.972Z,46.47
2023-03-19T00:08:05.590Z,46.57
2023-03-19T00:10:32.612Z,46.17
2023-03-19T00:12:59.590Z,46.06
2023-03-19T00:15:26.542Z,45.42
2023-03-19T00:17:54.214Z,45.76
2023-03-19T00:20:22.174Z,45.53
2023-03-19T00:22:49.201Z,45.04
2023-03-19T00:25:16.213Z,44.57
2023-03-19T00:27:44.394Z,44.69
2023-03-19T00:30:12.268Z,44.66
2023-03-19T00:32:40.427Z,44.67
2023-03-19T00:35:08.697Z,44.61
2023-03-19T00:37:37.321Z,44.68
2023-03-19T00:40:05.798Z,45.53
2023-03-19T00:42:34.286Z,45.02
2023-03-19T00:45:01.245Z,45.12
2023-03-19T00:47:28.211Z,45.30
2023-03-19T00:49:56.162Z,45.40
2023-03-19T00:52:23.059Z,45.24
2023-03-19T00:54:50.957Z,45.07
2023-03-19T00:57:19.199Z,45.59
2023-03-19T00:59:46.281Z,45.13
2023-03-19T01:02:13.251Z,45.07
2023-03-19T01:04:40.342Z,45.27
2023-03-19T01:07:07.542Z,45.69
2023-03-19T01:09:35.926Z,45.74
2023-03-19T01:12:04.795Z,45.98
2023-03-19T01:14:32.548Z,45.73
2023-03-19T01:17:00.086Z,45.91
2023-03-19T01:19:27.341Z,45.75
2023-03-19T01:21:54.363Z,46.12
2023-03-19T01:24:22.946Z,46.06
2023-03-19T01:26:53.574Z,45.43
2023-03-19T01:29:31.994Z,46.51
2023-03-19T01:32:06.099Z,46.70
2023-03-19T01:34:59.252Z,46.34
2023-03-19T01:37:26.463Z,45.81
2023-03-19T01:39:53.680Z,45.76
2023-03-19T01:42:20.708Z,45.55
2023-03-19T01:45:40.850Z,45.98
2023-03-19T01:48:41.611Z,45.91
2023-03-19T01:51:17.275Z,45.85
2023-03-19T01:54:01.235Z,45.46
2023-03-19T01:56:38.881Z,45.80
2023-03-19T01:59:38.824Z,45.64
2023-03-19T02:02:32.072Z,45.44
2023-03-19T02:05:11.312Z,45.57
2023-03-19T02:07:41.404Z,45.53
2023-03-19T02:10:15.098Z,46.11
2023-03-19T02:12:42.415Z,45.82
2023-03-19T02:15:09.985Z,46.22
2023-03-19T02:17:37.349Z,45.97
2023-03-19T02:20:14.978Z,45.95
2023-03-19T02:22:55.387Z,45.89
2023-03-19T02:25:35.291Z,45.93
2023-03-19T02:28:03.446Z,45.96
2023-03-19T02:30:34.150Z,45.97
2023-03-19T02:33:06.819Z,46.04
2023-03-19T02:35:35.717Z,46.31
2023-03-19T02:38:05.003Z,46.06
2023-03-19T02:40:38.463Z,46.41
2023-03-19T02:43:05.447Z,46.65
2023-03-19T02:45:32.686Z,46.89
2023-03-19T02:48:00.364Z,46.42
2023-03-19T02:50:27.523Z,46.19
2023-03-19T02:52:54.657Z,46.45
2023-03-19T02:55:22.155Z,46.28
2023-03-19T02:57:49.383Z,46.18
2023-03-19T03:00:18.703Z,46.58
2023-03-19T03:02:45.972Z,46.74
2023-03-19T03:05:14.360Z,47.01
2023-03-19T03:07:43.786Z,46.84
2023-03-19T03:10:11.841Z,47.18
2023-03-19T03:12:38.897Z,47.26
2023-03-19T03:15:08.464Z,47.01
2023-03-19T03:17:40.694Z,47.32
2023-03-19T03:20:11.580Z,46.60
2023-03-19T03:22:39.930Z,46.83
2023-03-19T03:25:07.696Z,46.61
2023-03-19T03:27:34.834Z,46.86
2023-03-19T03:30:01.749Z,46.43
2023-03-19T03:32:28.683Z,46.64
2023-03-19T03:34:55.750Z,46.77
2023-03-19T03:37:22.831Z,46.77
2023-03-19T03:39:49.832Z,46.46
2023-03-19T03:42:19.315Z,47.20
2023-03-19T03:44:47.054Z,46.89
2023-03-19T03:47:14.342Z,47.50
2023-03-19T03:49:41.821Z,47.26
2023-03-19T03:52:09.244Z,46.98
2023-03-19T03:54:36.327Z,47.52
2023-03-19T03:57:03.838Z,47.40
2023-03-19T03:59:31.682Z,47.53
2023-03-19T04:01:58.886Z,47.56
2023-03-19T04:04:26.462Z,47.34
2023-03-19T04:06:53.504Z,47.33
2023-03-19T04:09:31.279Z,47.29
2023-03-19T04:11:59.164Z,47.67
2023-03-19T04:14:27.072Z,47.34
2023-03-19T04:16:54.381Z,47.78
2023-03-19T04:19:21.404Z,47.80
2023-03-19T04:21:48.381Z,47.77
2023-03-19T04:24:16.436Z,48.47
2023-03-19T04:26:43.945Z,48.03
2023-03-19T04:29:10.960Z,48.22
2023-03-19T04:31:38.321Z,48.07
2023-03-19T04:34:05.888Z,49.06
2023-03-19T04:36:33.120Z,48.90
2023-03-19T04:39:00.300Z,49.09
2023-03-19T04:41:27.586Z,48.96
2023-03-19T04:44:13.581Z,49.62
2023-03-19T04:46:42.260Z,49.34
2023-03-19T04:49:09.286Z,49.17
2023-03-19T04:51:36.464Z,49.31
2023-03-19T04:54:03.811Z,49.61
2023-03-19T04:56:31.644Z,50.75
2023-03-19T04:58:58.924Z,50.30
2023-03-19T05:01:26.148Z,51.37
2023-03-19T05:04:00.242Z,51.07
2023-03-19T05:06:28.139Z,51.07
2023-03-19T05:08:55.697Z,51.20
2023-03-19T05:11:23.927Z,50.78
2023-03-19T05:14:05.464Z,50.78
2023-03-19T05:16:45.384Z,50.59
2023-03-19T05:19:12.456Z,50.85
2023-03-19T05:21:40.803Z,51.17
2023-03-19T05:24:08.064Z,51.31
2023-03-19T05:26:38.022Z,51.30
2023-03-19T05:29:20.160Z,51.05
2023-03-19T05:32:10.544Z,51.52
2023-03-19T05:34:38.990Z,51.92
2023-03-19T05:37:06.554Z,51.54
2023-03-19T05:39:33.996Z,52.37
2023-03-19T05:42:05.161Z,52.08
2023-03-19T05:44:33.096Z,51.51
2023-03-19T05:47:05.876Z,51.69
2023-03-19T05:49:36.889Z,50.99
2023-03-19T05:52:04.888Z,51.47
2023-03-19T05:54:32.421Z,51.45
2023-03-19T05:57:28.312Z,51.41
2023-03-19T06:00:17.919Z,51.73
2023-03-19T06:02:46.924Z,51.72
2023-03-19T06:05:34.628Z,51.81
2023-03-19T06:08:17.081Z,51.81
2023-03-19T06:11:02.019Z,52.02
2023-03-19T06:13:29.025Z,51.89
2023-03-19T06:16:00.055Z,51.84
2023-03-19T06:18:40.261Z,51.90
2023-03-19T06:21:10.795Z,51.57
2023-03-19T06:23:38.050Z,51.67
2023-03-19T06:26:07.057Z,51.73
2023-03-19T06:28:49.191Z,51.33
2023-03-19T06:31:17.435Z,51.29
2023-03-19T06:34:05.039Z,51.23
2023-03-19T06:36:41.586Z,51.30
2023-03-19T06:39:11.284Z,50.68
2023-03-19T06:41:38.319Z,50.86
2023-03-19T06:44:13.232Z,50.38
2023-03-19T06:46:40.645Z,50.62
2023-03-19T06:49:07.856Z,50.33
2023-03-19T06:51:34.775Z,50.30
2023-03-19T06:54:01.929Z,50.49
2023-03-19T06:56:29.438Z,50.09
2023-03-19T06:58:56.604Z,49.93
2023-03-19T07:01:23.910Z,50.14
2023-03-19T07:03:51.079Z,49.76
2023-03-19T07:06:18.115Z,50.00
2023-03-19T07:08:46.684Z,49.75
2023-03-19T07:11:14.356Z,49.68
2023-03-19T07:13:41.511Z,50.03
2023-03-19T07:16:08.883Z,49.69
2023-03-19T07:18:35.905Z,49.77
2023-03-19T07:21:02.971Z,49.63
2023-03-19T07:23:30.004Z,49.61
2023-03-19T07:25:56.926Z,49.70
2023-03-19T07:28:24.173Z,49.38
2023-03-19T07:30:54.928Z,49.09
2023-03-19T07:33:22.135Z,49.15
2023-03-19T07:35:49.502Z,49.10
2023-03-19T07:38:16.598Z,49.17
2023-03-19T07:40:54.878Z,49.15
2023-03-19T07:43:28.128Z,49.00
2023-03-19T07:45:55.030Z,48.99
2023-03-19T07:48:22.042Z,48.99
2023-03-19T07:50:51.837Z,48.77
2023-03-19T07:53:18.929Z,48.45
2023-03-19T07:55:46.036Z,48.42
2023-03-19T07:58:13.320Z,48.43
2023-03-19T08:00:40.414Z,48.46
2023-03-19T08:03:07.474Z,48.27
2023-03-19T08:05:34.555Z,48.13
2023-03-19T08:08:01.705Z,48.22
2023-03-19T08:10:28.762Z,47.65
2023-03-19T08:12:55.927Z,47.71
2023-03-19T08:15:22.788Z,47.83
2023-03-19T08:17:49.936Z,47.35
2023-03-19T08:20:17.391Z,46.61
2023-03-19T08:22:44.416Z,46.34
2023-03-19T08:25:11.799Z,46.13
2023-03-19T08:27:38.974Z,46.19
2023-03-19T08:30:08.367Z,46.01
2023-03-19T08:32:36.282Z,45.85
2023-03-19T08:35:04.748Z,45.96
2023-03-19T08:37:31.736Z,45.90
2023-03-19T08:39:58.889Z,45.39
2023-03-19T08:42:25.964Z,45.20
2023-03-19T08:44:52.868Z,44.96
2023-03-19T08:47:20.543Z,44.65
2023-03-19T08:49:47.405Z,44.96
2023-03-19T08:52:14.553Z,45.12
2023-03-19T08:54:41.485Z,45.10
2023-03-19T08:57:08.467Z,44.58
2023-03-19T08:59:35.608Z,44.33
2023-03-19T09:02:02.610Z,44.17
2023-03-19T09:04:29.683Z,43.95
2023-03-19T09:06:57.061Z,43.71
2023-03-19T09:09:24.825Z,43.76
2023-03-19T09:11:51.809Z,43.72
2023-03-19T09:14:20.520Z,43.44
2023-03-19T09:16:47.582Z,43.27
2023-03-19T09:19:15.303Z,43.10
2023-03-19T09:21:42.573Z,42.92
2023-03-19T09:24:09.717Z,42.92
2023-03-19T09:26:36.733Z,42.46
2023-03-19T09:29:04.937Z,42.50
2023-03-19T09:31:32.041Z,42.43
2023-03-19T09:33:59.034Z,42.34
2023-03-19T09:36:26.561Z,42.20
2023-03-19T09:38:53.547Z,42.35
2023-03-19T09:41:52.087Z,42.39
2023-03-19T09:44:33.857Z,42.21
2023-03-19T09:47:29.144Z,42.40
2023-03-19T09:50:13.309Z,42.50
2023-03-19T09:52:49.452Z,42.61
2023-03-19T09:55:37.263Z,42.14
2023-03-19T09:58:17.849Z,41.89
2023-03-19T10:00:52.277Z,41.64
2023-03-19T10:03:22.061Z,41.04
2023-03-19T10:06:08.527Z,41.04
2023-03-19T10:08:39.600Z,40.20
2023-03-19T10:11:31.142Z,40.71
2023-03-19T10:14:32.552Z,40.59
2023-03-19T10:17:04.284Z,40.20
2023-03-19T10:19:52.012Z,40.16
2023-03-19T10:22:27.322Z,39.77
2023-03-19T10:24:56.405Z,39.55
2023-03-19T10:27:26.739Z,39.08
2023-03-19T10:29:54.297Z,38.65
2023-03-19T10:32:43.474Z,38.81
2023-03-19T10:35:22.259Z,38.85
2023-03-19T10:37:50.890Z,38.81
2023-03-19T10:40:30.373Z,38.88
2023-03-19T10:43:17.188Z,38.44
2023-03-19T10:45:44.209Z,38.74
2023-03-19T10:48:17.985Z,38.91
2023-03-19T10:51:05.445Z,38.40
2023-03-19T10:53:38.614Z,38.53
2023-03-19T10:56:23.047Z,38.75
2023-03-19T10:59:07.286Z,38.52
2023-03-19T11:01:40.611Z,38.46
2023-03-19T11:04:22.230Z,38.50
2023-03-19T11:07:02.190Z,38.64
2023-03-19T11:09:39.125Z,38.51
2023-03-19T11:12:08.842Z,38.16
2023-03-19T11:14:44.522Z,37.97
2023-03-19T11:17:40.318Z,37.56
2023-03-19T11:20:37.162Z,36.97
2023-03-19T11:23:16.504Z,37.14
2023-03-19T11:25:55.189Z,37.71
2023-03-19T11:28:26.757Z,37.52
2023-03-19T11:31:27.007Z,37.64
2023-03-19T11:34:34.397Z,37.21
2023-03-19T11:37:16.168Z,36.90
2023-03-19T11:40:07.193Z,36.60
2023-03-19T11:43:09.680Z,36.92
2023-03-19T11:45:54.548Z,36.71
2023-03-19T11:48:30.353Z,36.66
2023-03-19T11:51:06.597Z,36.15
2023-03-19T11:54:04.306Z,36.56
2023-03-19T11:56:47.564Z,36.44
2023-03-19T11:59:26.705Z,36.05
2023-03-19T12:02:09.342Z,35.52
2023-03-19T12:04:54.073Z,35.17
2023-03-19T12:07:45.003Z,34.61
2023-03-19T12:10:33.608Z,35.25
2023-03-19T12:13:25.608Z,35.39
2023-03-19T12:16:39.002Z,35.77
2023-03-19T12:19:50.619Z,36.28
2023-03-19T12:22:41.845Z,36.20
2023-03-19T12:25:46.382Z,35.20
2023-03-19T12:28:29.656Z,33.66
2023-03-19T12:31:23.163Z,31.35
2023-03-19T12:34:29.776Z,31.50
2023-03-19T12:37:35.509Z,30.23
2023-03-19T12:40:42.679Z,29.43
2023-03-19T12:43:42.151Z,28.37
2023-03-19T12:46:16.588Z,27.74
2023-03-19T12:49:08.151Z,27.32
2023-03-19T12:51:40.533Z,27.04
2023-03-19T12:54:27.248Z,26.53
2023-03-19T12:57:19.893Z,25.37
2023-03-19T13:00:17.929Z,24.38
2023-03-19T13:02:57.945Z,22.66
2023-03-19T13:05:34.577Z,23.81
2023-03-19T13:08:37.554Z,23.56
2023-03-19T13:11:17.411Z,23.07
2023-03-19T13:14:20.669Z,23.44
2023-03-19T13:17:07.643Z,23.16
2023-03-19T13:19:47.853Z,23.06
2023-03-19T13:22:27.764Z,22.17
2023-03-19T13:24:56.268Z,21.62
2023-03-19T13:27:33.225Z,21.40
2023-03-19T13:30:12.942Z,20.63
2023-03-19T13:33:05.423Z,21.13
2023-03-19T13:35:37.062Z,21.50
2023-03-19T13:38:42.498Z,20.92
2023-03-19T13:41:37.606Z,21.25
2023-03-19T13:44:22.825Z,21.06
2023-03-19T13:46:51.399Z,21.82
2023-03-19T13:49:35.176Z,21.25
2023-03-19T13:52:11.692Z,21.43
2023-03-19T13:54:41.390Z,22.02
2023-03-19T13:57:18.295Z,21.65
2023-03-19T13:59:49.848Z,22.27
2023-03-19T14:02:22.734Z,21.83
2023-03-19T14:04:59.208Z,22.23
2023-03-19T14:07:40.503Z,21.56
2023-03-19T14:10:27.253Z,20.66
2023-03-19T14:13:09.389Z,20.68
2023-03-19T14:15:41.720Z,20.61
2023-03-19T14:18:18.730Z,20.66
2023-03-19T14:20:58.488Z,21.10
2023-03-19T14:23:39.425Z,20.85
2023-03-19T14:26:24.433Z,21.42
2023-03-19T14:29:07.319Z,21.42
2023-03-19T14:31:50.244Z,22.00
2023-03-19T14:34:24.862Z,22.33
2023-03-19T14:37:25.624Z,22.51
2023-03-19T14:40:08.213Z,22.50
2023-03-19T14:42:47.570Z,22.37
2023-03-19T14:45:36.074Z,23.20
2023-03-19T14:48:15.160Z,23.06
2023-03-19T14:51:10.387Z,23.37
2023-03-19T14:53:56.406Z,23.68
2023-03-19T14:56:41.745Z,23.96
2023-03-19T14:59:13.699Z,23.88
2023-03-19T15:01:44.990Z,24.04
2023-03-19T15:04:15.516Z,24.26
2023-03-19T15:06:59.285Z,24.53
2023-03-19T15:09:32.493Z,24.45
2023-03-19T15:12:31.250Z,24.47
2023-03-19T15:15:18.101Z,24.61
2023-03-19T15:17:51.642Z,24.59
2023-03-19T15:20:26.527Z,25.13
2023-03-19T15:23:01.091Z,25.14
2023-03-19T15:25:28.528Z,24.97
2023-03-19T15:28:09.848Z,25.07
2023-03-19T15:30:52.347Z,25.12
2023-03-19T15:33:39.517Z,25.25
2023-03-19T15:36:31.721Z,25.50
2023-03-19T15:39:06.746Z,25.73
2023-03-19T15:41:41.653Z,26.24
2023-03-19T15:44:17.094Z,25.82
2023-03-19T15:46:45.761Z,26.01
2023-03-19T15:49:45.649Z,26.45
2023-03-19T15:52:16.982Z,26.66
2023-03-19T15:54:44.486Z,26.87
2023-03-19T15:57:15.298Z,27.06
2023-03-19T15:59:42.615Z,27.07
2023-03-19T16:02:22.148Z,27.53
2023-03-19T16:05:18.715Z,27.78
2023-03-19T16:07:44.419Z,28.15
2023-03-19T16:10:42.672Z,28.39
2023-03-19T16:13:32.185Z,29.02
2023-03-19T16:16:28.902Z,29.21
2023-03-19T16:18:57.993Z,29.32
2023-03-19T16:21:27.615Z,30.03
2023-03-19T16:24:00.528Z,30.17
2023-03-19T16:26:40.897Z,30.05
2023-03-19T16:29:27.899Z,31.18
2023-03-19T16:32:06.489Z,31.87
2023-03-19T16:34:42.437Z,31.48
2023-03-19T16:38:28.162Z,31.83
2023-03-19T16:41:33.782Z,33.08
2023-03-19T16:44:18.554Z,34.26
2023-03-19T16:46:45.971Z,35.32
2023-03-19T16:49:12.919Z,35.53
2023-03-19T16:51:40.176Z,34.73
2023-03-19T16:54:07.465Z,34.97
2023-03-19T16:56:34.524Z,34.81
2023-03-19T16:59:03.576Z,36.62
2023-03-19T17:01:30.886Z,35.82
2023-03-19T17:03:59.005Z,35.77
2023-03-19T17:06:29.443Z,35.28
2023-03-19T17:08:56.765Z,35.89
2023-03-19T17:11:35.865Z,36.58
2023-03-19T17:14:05.501Z,36.84
2023-03-19T17:16:33.410Z,37.20
2023-03-19T17:19:00.539Z,36.87
2023-03-19T17:21:33.486Z,39.78
2023-03-19T17:24:21.784Z,38.68
2023-03-19T17:26:48.904Z,37.92
2023-03-19T17:29:15.799Z,39.83
2023-03-19T17:31:43.303Z,41.92
2023-03-19T17:34:21.063Z,41.00
2023-03-19T17:37:00.466Z,39.69
2023-03-19T17:39:32.090Z,42.21
2023-03-19T17:41:59.721Z,42.15
2023-03-19T17:44:27.837Z,41.21
2023-03-19T17:46:56.004Z,40.51
2023-03-19T17:49:29.912Z,42.82
2023-03-19T17:51:57.327Z,44.93
2023-03-19T17:54:26.941Z,43.03
2023-03-19T17:56:55.484Z,42.92
2023-03-19T17:59:23.254Z,45.01
2023-03-19T18:01:51.984Z,43.34
2023-03-19T18:04:21.344Z,42.06
2023-03-19T18:06:55.340Z,41.55
2023-03-19T18:09:25.819Z,41.66
2023-03-19T18:11:53.839Z,41.80
2023-03-19T18:14:21.029Z,43.73
2023-03-19T18:16:48.434Z,42.82
2023-03-19T18:19:33.581Z,42.39
2023-03-19T18:22:00.888Z,41.87
2023-03-19T18:24:27.881Z,42.01
2023-03-19T18:26:54.915Z,41.61
2023-03-19T18:29:21.869Z,41.30
2023-03-19T18:31:50.380Z,41.26
2023-03-19T18:34:17.942Z,40.97
2023-03-19T18:36:45.268Z,41.12
2023-03-19T18:39:16.259Z,41.31
2023-03-19T18:41:43.689Z,41.43
2023-03-19T18:44:12.041Z,41.31
2023-03-19T18:46:40.538Z,41.27
2023-03-19T18:49:22.567Z,41.43
2023-03-19T18:52:01.722Z,41.96
2023-03-19T18:54:31.052Z,42.18
2023-03-19T18:57:02.198Z,42.39
2023-03-19T18:59:32.752Z,42.67
2023-03-19T19:02:25.045Z,42.79
2023-03-19T19:04:51.961Z,43.00
2023-03-19T19:07:18.874Z,42.91
2023-03-19T19:09:46.178Z,43.23
2023-03-19T19:12:18.649Z,42.95
2023-03-19T19:14:46.568Z,42.55
2023-03-19T19:17:24.500Z,42.69
2023-03-19T19:19:51.457Z,42.99
2023-03-19T19:22:19.453Z,43.37
2023-03-19T19:24:46.711Z,43.27
2023-03-19T19:27:25.997Z,42.97
2023-03-19T19:29:53.210Z,42.79
2023-03-19T19:32:26.255Z,43.55
2023-03-19T19:34:53.864Z,43.44
2023-03-19T19:37:23.338Z,43.75
2023-03-19T19:39:51.160Z,43.44
2023-03-19T19:42:21.736Z,44.66
2023-03-19T19:44:55.686Z,44.60
2023-03-19T19:47:22.786Z,45.06
2023-03-19T19:49:49.713Z,45.39
2023-03-19T19:52:19.168Z,45.28
2023-03-19T19:54:46.984Z,45.35
2023-03-19T19:57:24.427Z,44.99
2023-03-19T19:59:52.660Z,45.15
2023-03-19T20:02:26.038Z,45.75
2023-03-19T20:04:53.000Z,45.08
2023-03-19T20:07:20.505Z,44.78
2023-03-19T20:09:48.267Z,44.81
2023-03-19T20:12:26.251Z,45.17
2023-03-19T20:14:53.402Z,45.85
2023-03-19T20:17:21.199Z,46.20
2023-03-19T20:19:48.327Z,46.06
2023-03-19T20:22:15.467Z,46.65
2023-03-19T20:24:42.736Z,47.56
2023-03-19T20:27:20.871Z,48.30
2023-03-19T20:29:50.138Z,49.02
2023-03-19T20:32:32.955Z,48.74
2023-03-19T20:35:03.077Z,50.14
2023-03-19T20:37:30.773Z,49.68
2023-03-19T20:39:58.611Z,49.99
2023-03-19T20:42:28.405Z,50.30
2023-03-19T20:44:58.340Z,49.88
2023-03-19T20:47:25.928Z,50.86
2023-03-19T20:49:53.417Z,51.06
2023-03-19T20:52:20.781Z,51.53
2023-03-19T20:54:48.246Z,51.49
2023-03-19T20:57:18.316Z,51.20
2023-03-19T20:59:46.838Z,51.17
2023-03-19T21:02:19.950Z,51.88
2023-03-19T21:04:47.587Z,53.85
2023-03-19T21:07:33.423Z,52.77
2023-03-19T21:10:20.742Z,54.48
2023-03-19T21:12:47.740Z,54.20
2023-03-19T21:15:16.153Z,54.49
2023-03-19T21:17:44.194Z,54.00
2023-03-19T21:20:24.616Z,53.51
2023-03-19T21:22:56.816Z,53.95
2023-03-19T21:25:28.303Z,54.26
2023-03-19T21:28:00.953Z,55.93
2023-03-19T21:30:28.232Z,55.38
2023-03-19T21:32:56.889Z,55.69
2023-03-19T21:35:26.248Z,56.70
2023-03-19T21:37:53.727Z,57.71
2023-03-19T21:40:28.308Z,57.29
2023-03-19T21:43:00.462Z,57.89
2023-03-19T21:45:36.504Z,57.84
2023-03-19T21:48:25.162Z,58.28
2023-03-19T21:50:52.890Z,59.06
2023-03-19T21:53:21.174Z,59.94
2023-03-19T21:55:50.542Z,59.47
2023-03-19T21:58:42.306Z,59.96
2023-03-19T22:01:19.557Z,59.33
2023-03-19T22:03:46.681Z,60.10
2023-03-19T22:06:14.164Z,60.26
2023-03-19T22:08:44.415Z,60.46
2023-03-19T22:11:23.281Z,60.87
2023-03-19T22:13:50.290Z,60.57
2023-03-19T22:16:23.910Z,60.45
2023-03-19T22:18:52.686Z,60.89
2023-03-19T22:21:22.490Z,60.44
2023-03-19T22:23:51.454Z,60.57
2023-03-19T22:26:36.203Z,60.36
2023-03-19T22:29:25.241Z,60.77
2023-03-19T22:31:54.025Z,60.46
2023-03-19T22:34:25.980Z,60.88
2023-03-19T22:36:53.477Z,60.87
2023-03-19T22:39:20.392Z,60.70
2023-03-19T22:41:49.004Z,60.76
2023-03-19T22:44:28.720Z,60.66
2023-03-19T22:46:58.928Z,60.55
2023-03-19T22:49:26.485Z,60.59
2023-03-19T22:51:53.436Z,60.89
2023-03-19T22:54:20.392Z,60.79
2023-03-19T22:56:47.397Z,60.54
2023-03-19T22:59:14.490Z,60.59
2023-03-19T23:01:45.139Z,60.82
2023-03-19T23:04:24.739Z,60.66
2023-03-19T23:06:53.636Z,60.66
2023-03-19T23:09:27.000Z,60.61
2023-03-19T23:11:54.507Z,60.89
2023-03-19T23:14:29.753Z,60.85
2023-03-19T23:17:02.040Z,60.61
2023-03-19T23:19:35.518Z,60.85
2023-03-19T23:22:05.634Z,60.91
2023-03-19T23:24:33.505Z,61.08
2023-03-19T23:27:02.333Z,61.25
2023-03-19T23:29:36.585Z,61.33
2023-03-19T23:32:04.869Z,61.03
2023-03-19T23:34:35.358Z,61.34
2023-03-19T23:37:07.496Z,61.10
2023-03-19T23:39:34.670Z,61.47
2023-03-19T23:42:01.805Z,61.08
2023-03-19T23:44:29.626Z,61.01
2023-03-19T23:47:00.816Z,60.96
2023-03-19T23:49:32.261Z,61.10
2023-03-19T23:51:59.782Z,61.31
2023-03-19T23:54:34.680Z,60.86
2023-03-19T23:57:06.595Z,61.04
2023-03-19T23:59:40.638Z,60.95
